createdAt,value
2022-08-17T00:02:26.366Z,95041.70
2022-08-17T00:04:54.781Z,95047.34
2022-08-17T00:07:22.433Z,95046.85
2022-08-17T00:09:49.191Z,95053.44
2022-08-17T00:12:42.579Z,95046.63
2022-08-17T00:15:05.623Z,95047.72
2022-08-17T00:17:35.755Z,95045.05
2022-08-17T00:20:03.992Z,95044.56
2022-08-17T00:22:35.673Z,95041.36
2022-08-17T00:25:07.529Z,95035.02
2022-08-17T00:27:36.390Z,95031.85
2022-08-17T00:30:06.041Z,95031.48
2022-08-17T00:33:12.594Z,95029.08
2022-08-17T00:35:39.677Z,95027.92
2022-08-17T00:38:09.378Z,95025.27
2022-08-17T00:40:46.138Z,95023.58
2022-08-17T00:43:28.860Z,95021.20
2022-08-17T00:45:56.096Z,95024.50
2022-08-17T00:48:29.101Z,95024.52
2022-08-17T00:51:15.794Z,95028.59
2022-08-17T00:53:51.038Z,95029.30
2022-08-17T00:56:27.231Z,95032.77
2022-08-17T00:58:55.273Z,95035.63
2022-08-17T01:01:23.009Z,95032.49
2022-08-17T01:03:59.661Z,95029.54
2022-08-17T01:06:28.300Z,95029.36
2022-08-17T01:08:57.927Z,95032.73
2022-08-17T01:11:26.714Z,95033.98
2022-08-17T01:13:53.439Z,95038.05
2022-08-17T01:16:24.525Z,95037.84
2022-08-17T01:19:01.185Z,95039.77
2022-08-17T01:21:30.977Z,95039.80
2022-08-17T01:23:57.818Z,95036.77
2022-08-17T01:26:25.279Z,95038.43
2022-08-17T01:28:55.516Z,95037.85
2022-08-17T01:31:28.389Z,95034.67
2022-08-17T01:33:57.832Z,95031.69
2022-08-17T01:36:24.795Z,95031.48
2022-08-17T01:38:51.696Z,95032.05
2022-08-17T01:41:21.633Z,95033.39
2022-08-17T01:43:56.436Z,95032.04
2022-08-17T01:46:30.421Z,95029.10
2022-08-17T01:48:58.217Z,95029.66
2022-08-17T01:51:32.021Z,95026.36
2022-08-17T01:54:06.217Z,95020.91
2022-08-17T01:56:35.522Z,95022.48
2022-08-17T01:59:03.617Z,95022.58
2022-08-17T02:01:33.245Z,95024.54
2022-08-17T02:04:01.973Z,95025.13
2022-08-17T02:06:31.608Z,95021.99
2022-08-17T02:09:17.054Z,95024.11
2022-08-17T02:11:44.876Z,95021.24
2022-08-17T02:14:13.590Z,95026.35
2022-08-17T02:16:41.472Z,95031.63
2022-08-17T02:19:12.502Z,95038.27
2022-08-17T02:21:41.401Z,95037.17
2022-08-17T02:24:12.927Z,95038.89
2022-08-17T02:26:39.868Z,95043.67
2022-08-17T02:29:07.123Z,95045.21
2022-08-17T02:31:35.202Z,95046.02
2022-08-17T02:34:04.448Z,95048.67
2022-08-17T02:36:34.619Z,95045.67
2022-08-17T02:39:06.695Z,95040.70
2022-08-17T02:41:34.045Z,95033.77
2022-08-17T02:44:00.851Z,95030.49
2022-08-17T02:46:29.860Z,95028.29
2022-08-17T02:48:57.484Z,95036.09
2022-08-17T02:51:25.518Z,95039.61
2022-08-17T02:53:52.773Z,95040.36
2022-08-17T02:56:39.898Z,95038.64
2022-08-17T02:59:06.754Z,95036.67
2022-08-17T03:01:33.734Z,95034.80
2022-08-17T03:04:00.623Z,95040.25
2022-08-17T03:06:28.699Z,95042.70
2022-08-17T03:08:55.393Z,95045.24
2022-08-17T03:11:23.227Z,95047.15
2022-08-17T03:13:50.548Z,95049.89
2022-08-17T03:16:17.423Z,95049.27
2022-08-17T03:18:44.361Z,95050.77
2022-08-17T03:21:11.174Z,95051.35
2022-08-17T03:23:41.625Z,95049.69
2022-08-17T03:26:15.391Z,95054.02
2022-08-17T03:28:43.100Z,95055.28
2022-08-17T03:31:09.951Z,95057.45
2022-08-17T03:33:36.927Z,95059.77
2022-08-17T03:36:04.157Z,95056.80
2022-08-17T03:38:39.213Z,95056.27
2022-08-17T03:41:06.994Z,95055.96
2022-08-17T03:43:34.195Z,95056.67
2022-08-17T03:46:27.939Z,95061.86
2022-08-17T03:49:24.436Z,95060.23
2022-08-17T03:52:11.137Z,95065.99
2022-08-17T03:54:57.128Z,95065.92
2022-08-17T03:57:24.205Z,95068.11
2022-08-17T03:59:52.466Z,95070.23
2022-08-17T04:02:29.642Z,95070.58
2022-08-17T04:04:57.655Z,95073.53
2022-08-17T04:07:27.628Z,95078.44
2022-08-17T04:09:54.697Z,95079.92
2022-08-17T04:12:23.448Z,95085.34
2022-08-17T04:14:53.223Z,95088.45
2022-08-17T04:17:26.258Z,95089.98
2022-08-17T04:19:54.352Z,95098.41
2022-08-17T04:22:31.290Z,95097.64
2022-08-17T04:25:05.244Z,95100.89
2022-08-17T04:27:32.148Z,95102.48
2022-08-17T04:29:58.885Z,95106.65
2022-08-17T04:33:05.527Z,95104.52
2022-08-17T04:35:18.134Z,95100.11
2022-08-17T04:37:44.979Z,95098.17
2022-08-17T04:40:30.752Z,95104.23
2022-08-17T04:43:14.902Z,95107.15
2022-08-17T04:45:56.042Z,95102.90
2022-08-17T04:48:29.844Z,95103.64
2022-08-17T04:51:10.871Z,95102.88
2022-08-17T04:53:40.356Z,95106.39
2022-08-17T04:56:11.796Z,95109.66
2022-08-17T04:58:45.209Z,95109.88
2022-08-17T05:01:12.361Z,95110.16
2022-08-17T05:03:39.652Z,95107.14
2022-08-17T05:06:06.940Z,95107.88
2022-08-17T05:08:34.067Z,95103.77
2022-08-17T05:11:01.604Z,95108.45
2022-08-17T05:13:29.468Z,95118.73
2022-08-17T05:15:59.834Z,95121.88
2022-08-17T05:18:29.214Z,95121.70
2022-08-17T05:20:56.978Z,95113.82
2022-08-17T05:23:26.574Z,95110.55
2022-08-17T05:26:02.559Z,95111.98
2022-08-17T05:28:30.809Z,95111.51
2022-08-17T05:31:00.744Z,95115.36
2022-08-17T05:33:31.329Z,95114.84
2022-08-17T05:35:59.727Z,95115.31
2022-08-17T05:38:28.839Z,95112.98
2022-08-17T05:40:56.739Z,95114.43
2022-08-17T05:43:30.435Z,95112.52
2022-08-17T05:46:04.076Z,95112.73
2022-08-17T05:48:40.912Z,95114.35
2022-08-17T05:51:45.605Z,95114.63
2022-08-17T05:54:22.531Z,95116.66
2022-08-17T05:57:11.086Z,95113.88
2022-08-17T06:00:00.828Z,95116.65
2022-08-17T06:02:56.467Z,95117.52
2022-08-17T06:05:35.500Z,95112.06
2022-08-17T06:08:17.294Z,95112.85
2022-08-17T06:10:53.639Z,95108.66
2022-08-17T06:13:44.901Z,95109.70
2022-08-17T06:16:33.720Z,95113.98
2022-08-17T06:19:25.466Z,95112.66
2022-08-17T06:21:54.403Z,95113.52
2022-08-17T06:24:28.504Z,95117.98
2022-08-17T06:27:06.887Z,95118.63
2022-08-17T06:29:56.365Z,95114.92
2022-08-17T06:32:24.657Z,95115.14
2022-08-17T06:34:52.923Z,95119.00
2022-08-17T06:37:48.502Z,95122.80
2022-08-17T06:40:30.670Z,95129.16
2022-08-17T06:43:25.737Z,95130.69
2022-08-17T06:46:23.353Z,95131.92
2022-08-17T06:48:59.402Z,95130.84
2022-08-17T06:51:29.601Z,95138.98
2022-08-17T06:54:10.821Z,95139.36
2022-08-17T06:56:52.921Z,95141.70
2022-08-17T06:59:25.872Z,95141.33
2022-08-17T07:02:04.795Z,95141.05
2022-08-17T07:04:34.858Z,95145.05
2022-08-17T07:07:27.164Z,95145.11
2022-08-17T07:09:59.242Z,95149.26
2022-08-17T07:12:37.952Z,95150.28
2022-08-17T07:15:08.100Z,95151.41
2022-08-17T07:17:46.975Z,95148.60
2022-08-17T07:20:22.349Z,95147.02
2022-08-17T07:23:15.012Z,95148.36
2022-08-17T07:25:41.862Z,95148.25
2022-08-17T07:28:08.584Z,95149.00
2022-08-17T07:30:48.726Z,95149.78
2022-08-17T07:33:27.055Z,95148.41
2022-08-17T07:35:57.681Z,95150.04
2022-08-17T07:38:28.118Z,95155.03
2022-08-17T07:41:00.798Z,95152.56
2022-08-17T07:43:40.093Z,95150.27
2022-08-17T07:46:40.978Z,95146.96
2022-08-17T07:49:12.010Z,95149.73
2022-08-17T07:51:52.602Z,95147.80
2022-08-17T07:54:26.970Z,95150.54
2022-08-17T07:56:55.494Z,95147.92
2022-08-17T07:59:39.154Z,95150.91
2022-08-17T08:02:33.695Z,95152.41
2022-08-17T08:05:12.396Z,95150.67
2022-08-17T08:07:50.628Z,95156.08
2022-08-17T08:10:42.714Z,95159.07
2022-08-17T08:13:19.808Z,95166.72
2022-08-17T08:15:54.227Z,95171.16
2022-08-17T08:18:55.755Z,95170.48
2022-08-17T08:21:54.557Z,95171.89
2022-08-17T08:24:33.382Z,95167.55
2022-08-17T08:27:21.940Z,95167.80
2022-08-17T08:29:53.313Z,95169.33
2022-08-17T08:32:20.366Z,95169.08
2022-08-17T08:35:03.007Z,95166.69
2022-08-17T08:37:43.758Z,95167.83
2022-08-17T08:40:19.991Z,95166.90
2022-08-17T08:43:22.266Z,95166.30
2022-08-17T08:45:55.988Z,95168.28
2022-08-17T08:48:56.563Z,95168.38
2022-08-17T08:51:27.842Z,95163.61
2022-08-17T08:53:57.567Z,95168.91
2022-08-17T08:56:32.225Z,95169.35
2022-08-17T08:59:07.272Z,95169.95
2022-08-17T09:01:44.406Z,95171.56
2022-08-17T09:04:26.526Z,95172.25
2022-08-17T09:07:18.554Z,95169.15
2022-08-17T09:10:04.549Z,95170.31
2022-08-17T09:13:28.143Z,95174.19
2022-08-17T09:16:03.473Z,95173.98
2022-08-17T09:19:00.795Z,95170.42
2022-08-17T09:21:33.949Z,95173.25
2022-08-17T09:24:20.748Z,95173.71
2022-08-17T09:27:18.810Z,95174.69
2022-08-17T09:29:50.900Z,95169.27
2022-08-17T09:32:24.897Z,95166.10
2022-08-17T09:35:02.179Z,95163.13
2022-08-17T09:37:37.164Z,95165.71
2022-08-17T09:40:09.758Z,95166.02
2022-08-17T09:42:50.780Z,95164.98
2022-08-17T09:45:31.167Z,95162.79
2022-08-17T09:48:11.797Z,95165.64
2022-08-17T09:51:04.518Z,95164.44
2022-08-17T09:53:36.725Z,95171.08
2022-08-17T09:56:16.002Z,95172.81
2022-08-17T09:59:08.509Z,95172.23
2022-08-17T10:01:43.101Z,95171.48
2022-08-17T10:04:32.310Z,95172.23
2022-08-17T10:07:17.300Z,95168.05
2022-08-17T10:09:55.173Z,95167.45
2022-08-17T10:12:29.958Z,95166.50
2022-08-17T10:15:15.345Z,95163.21
2022-08-17T10:18:03.514Z,95168.48
2022-08-17T10:20:45.556Z,95164.89
2022-08-17T10:23:39.709Z,95167.23
2022-08-17T10:26:18.633Z,95165.36
2022-08-17T10:28:56.857Z,95166.55
2022-08-17T10:31:45.534Z,95167.23
2022-08-17T10:34:48.695Z,95157.48
2022-08-17T10:38:00.314Z,95163.26
2022-08-17T10:40:55.616Z,95161.08
2022-08-17T10:44:35.419Z,95164.56
2022-08-17T10:46:55.965Z,95159.17
2022-08-17T10:49:29.066Z,95160.52
2022-08-17T10:52:03.297Z,95159.74
2022-08-17T10:54:35.467Z,95155.47
2022-08-17T10:57:02.993Z,95158.38
2022-08-17T10:59:35.739Z,95162.79
2022-08-17T11:02:14.659Z,95159.75
2022-08-17T11:04:59.792Z,95164.52
2022-08-17T11:07:57.969Z,95166.58
2022-08-17T11:10:52.278Z,95166.67
2022-08-17T11:13:48.086Z,95168.15
2022-08-17T11:16:50.405Z,95166.88
2022-08-17T11:19:43.049Z,95169.05
2022-08-17T11:22:33.412Z,95165.84
2022-08-17T11:25:31.109Z,95162.12
2022-08-17T11:28:13.418Z,95158.95
2022-08-17T11:30:46.475Z,95155.06
2022-08-17T11:33:33.673Z,95154.42
2022-08-17T11:36:23.068Z,95154.71
2022-08-17T11:39:17.767Z,95155.99
2022-08-17T11:41:50.653Z,95153.40
2022-08-17T11:44:39.532Z,95148.02
2022-08-17T11:48:23.647Z,95147.23
2022-08-17T11:51:17.840Z,95146.95
2022-08-17T11:53:45.531Z,95145.11
2022-08-17T11:56:31.437Z,95145.53
2022-08-17T11:59:00.340Z,95140.49
2022-08-17T12:01:28.686Z,95137.45
2022-08-17T12:04:22.460Z,95140.55
2022-08-17T12:07:00.469Z,95144.70
2022-08-17T12:09:31.871Z,95145.19
2022-08-17T12:12:14.350Z,95145.63
2022-08-17T12:15:09.713Z,95146.08
2022-08-17T12:17:40.914Z,95148.05
2022-08-17T12:20:34.291Z,95146.11
2022-08-17T12:23:33.667Z,95143.34
2022-08-17T12:26:13.281Z,95135.79
2022-08-17T12:28:46.319Z,95142.98
2022-08-17T12:31:24.358Z,95144.59
2022-08-17T12:33:51.564Z,95142.30
2022-08-17T12:36:24.688Z,95140.11
2022-08-17T12:39:14.369Z,95139.75
2022-08-17T12:41:46.234Z,95143.88
2022-08-17T12:44:22.885Z,95144.83
2022-08-17T12:47:21.943Z,95148.48
2022-08-17T12:49:54.826Z,95145.06
2022-08-17T12:52:24.678Z,95142.06
2022-08-17T12:55:18.244Z,95139.86
2022-08-17T12:57:48.973Z,95137.89
2022-08-17T13:00:30.011Z,95136.72
2022-08-17T13:03:35.723Z,95141.59
2022-08-17T13:06:08.641Z,95145.45
2022-08-17T13:08:42.454Z,95140.13
2022-08-17T13:11:18.469Z,95139.13
2022-08-17T13:13:54.561Z,95138.88
2022-08-17T13:16:27.454Z,95142.20
2022-08-17T13:19:09.343Z,95145.58
2022-08-17T13:21:37.735Z,95146.81
2022-08-17T13:24:10.277Z,95145.23
2022-08-17T13:26:37.118Z,95149.67
2022-08-17T13:29:33.161Z,95147.93
2022-08-17T13:32:13.430Z,95150.95
2022-08-17T13:35:08.305Z,95146.79
2022-08-17T13:37:40.720Z,95148.60
2022-08-17T13:40:09.591Z,95147.07
2022-08-17T13:42:50.215Z,95142.92
2022-08-17T13:45:39.304Z,95143.98
2022-08-17T13:48:16.088Z,95142.80
2022-08-17T13:51:03.608Z,95152.23
2022-08-17T13:53:36.342Z,95152.27
2022-08-17T13:56:37.140Z,95151.06
2022-08-17T13:59:10.969Z,95153.04
2022-08-17T14:01:43.560Z,95149.77
2022-08-17T14:04:12.732Z,95144.60
2022-08-17T14:06:54.204Z,95143.14
2022-08-17T14:09:37.407Z,95144.40
2022-08-17T14:12:10.008Z,95142.57
2022-08-17T14:14:37.483Z,95135.75
2022-08-17T14:17:05.136Z,95135.41
2022-08-17T14:19:35.753Z,95135.89
2022-08-17T14:22:04.572Z,95136.03
2022-08-17T14:24:41.272Z,95139.69
2022-08-17T14:27:17.383Z,95146.23
2022-08-17T14:29:44.666Z,95148.92
2022-08-17T14:32:24.203Z,95149.23
2022-08-17T14:34:52.075Z,95148.15
2022-08-17T14:37:20.663Z,95153.54
2022-08-17T14:39:47.891Z,95155.07
2022-08-17T14:42:17.135Z,95156.45
2022-08-17T14:44:43.941Z,95159.38
2022-08-17T14:47:14.512Z,95161.88
2022-08-17T14:49:41.951Z,95164.12
2022-08-17T14:52:12.175Z,95162.41
2022-08-17T14:54:43.745Z,95166.38
2022-08-17T14:57:25.843Z,95164.98
2022-08-17T14:59:59.765Z,95162.98
2022-08-17T15:02:29.663Z,95163.52
2022-08-17T15:05:05.503Z,95168.45
2022-08-17T15:07:32.367Z,95167.28
2022-08-17T15:10:01.730Z,95164.96
2022-08-17T15:12:33.161Z,95164.05
2022-08-17T15:15:05.708Z,95163.20
2022-08-17T15:17:44.737Z,95157.44
2022-08-17T15:20:18.693Z,95152.24
2022-08-17T15:22:49.267Z,95148.49
2022-08-17T15:25:18.351Z,95146.98
2022-08-17T15:27:45.185Z,95147.05
2022-08-17T15:30:12.858Z,95145.36
2022-08-17T15:32:50.819Z,95149.52
2022-08-17T15:35:27.547Z,95147.56
2022-08-17T15:38:01.626Z,95155.61
2022-08-17T15:40:36.676Z,95159.55
2022-08-17T15:43:10.341Z,95165.03
2022-08-17T15:45:38.180Z,95166.34
2022-08-17T15:48:05.331Z,95172.58
2022-08-17T15:50:32.215Z,95171.02
2022-08-17T15:53:01.072Z,95173.64
2022-08-17T15:55:30.394Z,95176.89
2022-08-17T15:57:57.762Z,95176.82
2022-08-17T16:00:27.735Z,95181.29
2022-08-17T16:03:46.297Z,95185.61
2022-08-17T16:05:43.076Z,95184.10
2022-08-17T16:08:10.521Z,95189.14
2022-08-17T16:10:37.548Z,95184.37
2022-08-17T16:13:04.625Z,95185.16
2022-08-17T16:15:31.814Z,95181.92
2022-08-17T16:17:59.313Z,95184.89
2022-08-17T16:20:27.082Z,95188.94
2022-08-17T16:22:54.975Z,95196.63
2022-08-17T16:25:38.887Z,95204.67
2022-08-17T16:28:17.426Z,95207.14
2022-08-17T16:30:44.957Z,95192.75
2022-08-17T16:33:13.285Z,95193.27
2022-08-17T16:35:41.530Z,95194.96
2022-08-17T16:38:09.295Z,95199.46
2022-08-17T16:40:36.443Z,95201.90
2022-08-17T16:43:09.968Z,95208.61
2022-08-17T16:45:39.763Z,95208.84
2022-08-17T16:48:08.106Z,95209.17
2022-08-17T16:50:36.013Z,95208.94
2022-08-17T16:53:09.956Z,95211.16
2022-08-17T16:55:38.098Z,95214.94
2022-08-17T16:58:08.359Z,95221.71
2022-08-17T17:00:36.914Z,95219.91
2022-08-17T17:03:19.817Z,95220.45
2022-08-17T17:05:55.269Z,95222.55
2022-08-17T17:08:46.287Z,95227.57
2022-08-17T17:11:47.640Z,95232.06
2022-08-17T17:14:24.855Z,95232.75
2022-08-17T17:17:03.265Z,95239.73
2022-08-17T17:19:37.769Z,95247.13
2022-08-17T17:22:12.828Z,95250.15
2022-08-17T17:24:47.052Z,95249.20
2022-08-17T17:27:29.783Z,95238.80
2022-08-17T17:30:03.460Z,95233.60
2022-08-17T17:32:37.481Z,95234.27
2022-08-17T17:35:10.314Z,95237.05
2022-08-17T17:37:39.528Z,95236.04
2022-08-17T17:40:15.864Z,95236.08
2022-08-17T17:42:44.571Z,95235.33
2022-08-17T17:45:22.709Z,95233.28
2022-08-17T17:47:50.225Z,95243.45
2022-08-17T17:50:19.405Z,95245.60
2022-08-17T17:52:57.119Z,95243.48
2022-08-17T17:55:59.649Z,95240.31
2022-08-17T17:58:57.321Z,95242.27
2022-08-17T18:01:24.241Z,95243.24
2022-08-17T18:04:21.160Z,95244.29
2022-08-17T18:07:11.920Z,95242.50
2022-08-17T18:10:29.611Z,95248.20
2022-08-17T18:13:09.517Z,95245.73
2022-08-17T18:16:00.347Z,95248.17
2022-08-17T18:18:39.682Z,95250.14
2022-08-17T18:21:18.905Z,95250.55
2022-08-17T18:23:48.499Z,95255.80
2022-08-17T18:26:33.672Z,95257.95
2022-08-17T18:29:11.066Z,95261.59
2022-08-17T18:31:37.782Z,95258.80
2022-08-17T18:37:27.269Z,95261.41
2022-08-17T18:39:54.664Z,95269.02
2022-08-17T18:42:27.013Z,95269.23
2022-08-17T18:44:55.459Z,95263.30
2022-08-17T18:47:25.641Z,95265.66
2022-08-17T18:49:57.009Z,95266.48
2022-08-17T18:52:33.275Z,95272.84
2022-08-17T18:55:13.847Z,95274.83
2022-08-17T18:57:51.897Z,95270.84
2022-08-17T19:00:40.670Z,95273.29
2022-08-17T19:03:17.267Z,95273.80
2022-08-17T19:05:54.144Z,95278.20
2022-08-17T19:08:20.988Z,95274.89
2022-08-17T19:10:58.280Z,95277.95
2022-08-17T19:13:40.996Z,95273.64
2022-08-17T19:16:18.001Z,95270.48
2022-08-17T19:19:04.941Z,95265.63
2022-08-17T19:21:40.983Z,95261.27
2022-08-17T19:24:13.767Z,95262.24
2022-08-17T19:26:56.329Z,95261.67
2022-08-17T19:29:34.563Z,95261.02
2022-08-17T19:32:02.022Z,95260.46
2022-08-17T19:34:33.499Z,95258.84
2022-08-17T19:37:07.010Z,95260.13
2022-08-17T19:39:51.485Z,95262.84
2022-08-17T19:42:21.271Z,95264.71
2022-08-17T19:45:03.473Z,95271.22
2022-08-17T19:47:55.409Z,95278.18
2022-08-17T19:50:32.470Z,95276.42
2022-08-17T19:53:19.188Z,95270.65
2022-08-17T19:55:55.957Z,95275.30
2022-08-17T19:58:22.906Z,95274.24
2022-08-17T20:00:52.530Z,95270.77
2022-08-17T20:03:45.677Z,95275.59
2022-08-17T20:06:14.195Z,95282.13
2022-08-17T20:08:58.327Z,95285.23
2022-08-17T20:11:40.601Z,95285.60
2022-08-17T20:14:23.957Z,95282.60
2022-08-17T20:16:51.202Z,95281.08
2022-08-17T20:19:51.565Z,95282.41
2022-08-17T20:22:58.564Z,95291.72
2022-08-17T20:25:46.034Z,95297.23
2022-08-17T20:28:21.516Z,95294.67
2022-08-17T20:30:48.534Z,95287.98
2022-08-17T20:33:41.834Z,95284.63
2022-08-17T20:36:15.395Z,95279.82
2022-08-17T20:38:48.097Z,95273.87
2022-08-17T20:41:26.407Z,95276.80
2022-08-17T20:43:55.767Z,95276.68
2022-08-17T20:46:56.001Z,95275.66
2022-08-17T20:49:40.908Z,95267.38
2022-08-17T20:52:31.128Z,95266.46
2022-08-17T20:54:58.047Z,95267.89
2022-08-17T20:57:31.034Z,95272.84
2022-08-17T21:00:00.839Z,95272.55
2022-08-17T21:02:28.711Z,95275.40
2022-08-17T21:04:56.606Z,95279.48
2022-08-17T21:07:28.673Z,95276.64
2022-08-17T21:10:15.782Z,95272.60
2022-08-17T21:12:52.961Z,95271.30
2022-08-17T21:15:47.954Z,95267.98
2022-08-17T21:18:22.709Z,95269.19
2022-08-17T21:21:08.413Z,95261.16
2022-08-17T21:23:44.449Z,95262.70
2022-08-17T21:26:32.106Z,95262.80
2022-08-17T21:29:30.144Z,95264.34
2022-08-17T21:32:03.961Z,95265.21
2022-08-17T21:35:10.745Z,95264.63
2022-08-17T21:37:43.460Z,95271.77
2022-08-17T21:40:10.357Z,95267.02
2022-08-17T21:42:47.227Z,95271.33
2022-08-17T21:45:36.591Z,95272.18
2022-08-17T21:48:14.786Z,95273.83
2022-08-17T21:50:45.162Z,95271.99
2022-08-17T21:53:25.412Z,95272.40
2022-08-17T21:55:54.542Z,95273.67
2022-08-17T21:58:43.625Z,95273.52
2022-08-17T22:01:29.498Z,95275.18
2022-08-17T22:04:22.390Z,95278.31
2022-08-17T22:06:52.403Z,95278.87
2022-08-17T22:09:40.933Z,95271.55
2022-08-17T22:12:12.514Z,95266.84
2022-08-17T22:14:52.198Z,95267.44
2022-08-17T22:17:28.164Z,95270.76
2022-08-17T22:20:03.815Z,95271.75
2022-08-17T22:23:02.524Z,95272.70
2022-08-17T22:25:33.062Z,95268.87
2022-08-17T22:28:02.167Z,95268.32
2022-08-17T22:30:36.970Z,95264.48
2022-08-17T22:33:42.546Z,95264.02
2022-08-17T22:36:26.587Z,95261.63
2022-08-17T22:39:07.852Z,95259.23
2022-08-17T22:41:40.625Z,95254.40
2022-08-17T22:44:33.722Z,95261.22
2022-08-17T22:47:18.587Z,95268.54
2022-08-17T22:49:54.222Z,95268.73
2022-08-17T22:52:35.011Z,95274.46
2022-08-17T22:55:27.225Z,95271.84
2022-08-17T22:58:13.015Z,95276.58
2022-08-17T23:00:45.858Z,95274.48
2022-08-17T23:03:17.281Z,95276.43
2022-08-17T23:06:01.611Z,95274.83
2022-08-17T23:08:29.476Z,95272.41
2022-08-17T23:10:59.696Z,95275.81
2022-08-17T23:13:27.188Z,95277.23
2022-08-17T23:15:53.906Z,95282.80
2022-08-17T23:18:22.899Z,95282.61
2022-08-17T23:20:50.150Z,95281.38
2022-08-17T23:23:21.852Z,95280.44
2022-08-17T23:25:50.702Z,95284.72
2022-08-17T23:28:17.854Z,95285.20
2022-08-17T23:30:47.684Z,95285.26
2022-08-17T23:33:29.480Z,95287.13
2022-08-17T23:36:00.053Z,95282.27
2022-08-17T23:38:27.739Z,95286.17
2022-08-17T23:40:59.301Z,95284.70
2022-08-17T23:43:28.285Z,95284.13
2022-08-17T23:45:58.160Z,95288.70
2022-08-17T23:48:28.369Z,95285.10
2022-08-17T23:51:08.550Z,95284.21
2022-08-17T23:53:37.293Z,95284.42
2022-08-17T23:56:09.648Z,95287.61
2022-08-17T23:58:40.001Z,95283.63
